sensor_id;sensor_type;location;lat;lon;timestamp;temperature;humidity
12959;DHT22;6544;51.666;6.634;2022-11-20T00:01:27;0.80;1.00
12959;DHT22;6544;51.666;6.634;2022-11-20T00:03:56;0.60;1.00
12959;DHT22;6544;51.666;6.634;2022-11-20T00:06:25;0.70;1.00
12959;DHT22;6544;51.666;6.634;2022-11-20T00:08:54;0.60;1.00
12959;DHT22;6544;51.666;6.634;2022-11-20T00:11:23;0.60;1.00
12959;DHT22;6544;51.666;6.634;2022-11-20T00:13:52;0.70;1.00
12959;DHT22;6544;51.666;6.634;2022-11-20T00:16:21;0.70;1.00
12959;DHT22;6544;51.666;6.634;2022-11-20T00:18:49;0.70;1.00
12959;DHT22;6544;51.666;6.634;2022-11-20T00:21:18;0.50;1.00
12959;DHT22;6544;51.666;6.634;2022-11-20T00:23:47;0.40;1.00
12959;DHT22;6544;51.666;6.634;2022-11-20T00:26:15;0.40;1.00
12959;DHT22;6544;51.666;6.634;2022-11-20T00:28:43;0.50;1.00
12959;DHT22;6544;51.666;6.634;2022-11-20T00:31:12;0.60;1.00
12959;DHT22;6544;51.666;6.634;2022-11-20T00:33:40;0.60;1.00
12959;DHT22;6544;51.666;6.634;2022-11-20T00:36:09;0.60;1.00
12959;DHT22;6544;51.666;6.634;2022-11-20T00:38:36;0.50;1.00
12959;DHT22;6544;51.666;6.634;2022-11-20T00:41:06;0.40;1.00
12959;DHT22;6544;51.666;6.634;2022-11-20T00:43:33;0.50;1.00
12959;DHT22;6544;51.666;6.634;2022-11-20T00:46:01;0.50;1.00
12959;DHT22;6544;51.666;6.634;2022-11-20T00:48:28;0.40;1.00
12959;DHT22;6544;51.666;6.634;2022-11-20T00:50:55;0.20;1.00
12959;DHT22;6544;51.666;6.634;2022-11-20T00:53:22;0.30;1.00
12959;DHT22;6544;51.666;6.634;2022-11-20T00:55:53;0.20;1.00
12959;DHT22;6544;51.666;6.634;2022-11-20T00:58:22;0.20;1.00
12959;DHT22;6544;51.666;6.634;2022-11-20T01:00:49;0.30;1.00
12959;DHT22;6544;51.666;6.634;2022-11-20T01:03:17;0.20;5.20
12959;DHT22;6544;51.666;6.634;2022-11-20T01:05:44;0.20;1.00
12959;DHT22;6544;51.666;6.634;2022-11-20T01:08:11;0.20;49.90
12959;DHT22;6544;51.666;6.634;2022-11-20T01:10:38;0.10;46.20
12959;DHT22;6544;51.666;6.634;2022-11-20T01:13:05;0.00;99.90
12959;DHT22;6544;51.666;6.634;2022-11-20T01:15:50;0.20;53.60
12959;DHT22;6544;51.666;6.634;2022-11-20T01:18:17;0.30;1.00
12959;DHT22;6544;51.666;6.634;2022-11-20T01:20:44;0.30;1.00
12959;DHT22;6544;51.666;6.634;2022-11-20T01:23:11;0.20;1.00
12959;DHT22;6544;51.666;6.634;2022-11-20T01:25:38;0.10;51.20
12959;DHT22;6544;51.666;6.634;2022-11-20T01:28:04;0.10;99.90
12959;DHT22;6544;51.666;6.634;2022-11-20T01:30:31;0.20;1.00
12959;DHT22;6544;51.666;6.634;2022-11-20T01:33:00;0.00;1.00
12959;DHT22;6544;51.666;6.634;2022-11-20T01:35:26;-0.10;47.50
12959;DHT22;6544;51.666;6.634;2022-11-20T01:37:53;0.00;32.70
12959;DHT22;6544;51.666;6.634;2022-11-20T01:40:20;-0.10;1.00
12959;DHT22;6544;51.666;6.634;2022-11-20T01:48:52;-0.40;99.90
12959;DHT22;6544;51.666;6.634;2022-11-20T01:51:26;-0.20;99.90
12959;DHT22;6544;51.666;6.634;2022-11-20T01:53:55;-0.10;99.90
12959;DHT22;6544;51.666;6.634;2022-11-20T01:56:24;0.00;29.60
12959;DHT22;6544;51.666;6.634;2022-11-20T01:58:53;-0.10;1.00
12959;DHT22;6544;51.666;6.634;2022-11-20T02:01:20;0.00;37.00
12959;DHT22;6544;51.666;6.634;2022-11-20T02:03:49;0.00;1.00
12959;DHT22;6544;51.666;6.634;2022-11-20T02:06:19;0.10;1.00
12959;DHT22;6544;51.666;6.634;2022-11-20T02:08:48;0.00;1.00
12959;DHT22;6544;51.666;6.634;2022-11-20T02:11:15;0.00;1.00
12959;DHT22;6544;51.666;6.634;2022-11-20T02:13:42;-0.10;1.00
12959;DHT22;6544;51.666;6.634;2022-11-20T02:16:13;-0.10;1.00
12959;DHT22;6544;51.666;6.634;2022-11-20T02:18:42;-0.10;1.00
12959;DHT22;6544;51.666;6.634;2022-11-20T02:21:16;-0.10;1.00
12959;DHT22;6544;51.666;6.634;2022-11-20T02:23:58;-0.10;1.00
12959;DHT22;6544;51.666;6.634;2022-11-20T02:26:28;-0.30;32.80
12959;DHT22;6544;51.666;6.634;2022-11-20T02:28:55;-0.50;99.90
12959;DHT22;6544;51.666;6.634;2022-11-20T02:31:22;-0.30;99.90
12959;DHT22;6544;51.666;6.634;2022-11-20T02:33:54;-0.20;46.10
12959;DHT22;6544;51.666;6.634;2022-11-20T02:36:22;-0.30;22.30
12959;DHT22;6544;51.666;6.634;2022-11-20T02:38:50;-0.30;49.70
12959;DHT22;6544;51.666;6.634;2022-11-20T02:41:18;-0.30;77.60
12959;DHT22;6544;51.666;6.634;2022-11-20T02:43:45;-0.20;8.50
12959;DHT22;6544;51.666;6.634;2022-11-20T02:46:12;-0.20;42.70
12959;DHT22;6544;51.666;6.634;2022-11-20T02:48:39;-0.40;91.30
12959;DHT22;6544;51.666;6.634;2022-11-20T02:51:06;-0.50;99.90
12959;DHT22;6544;51.666;6.634;2022-11-20T02:53:32;-0.50;99.90
12959;DHT22;6544;51.666;6.634;2022-11-20T02:55:59;-0.30;99.90
12959;DHT22;6544;51.666;6.634;2022-11-20T02:58:28;-0.40;99.90
12959;DHT22;6544;51.666;6.634;2022-11-20T03:00:54;-0.30;99.90
12959;DHT22;6544;51.666;6.634;2022-11-20T03:03:21;-0.30;43.00
12959;DHT22;6544;51.666;6.634;2022-11-20T03:05:48;-0.30;13.20
12959;DHT22;6544;51.666;6.634;2022-11-20T03:08:15;-0.30;1.00
12959;DHT22;6544;51.666;6.634;2022-11-20T03:10:42;-0.50;99.90
12959;DHT22;6544;51.666;6.634;2022-11-20T03:13:09;-0.50;99.90
12959;DHT22;6544;51.666;6.634;2022-11-20T03:15:37;-0.40;99.90
12959;DHT22;6544;51.666;6.634;2022-11-20T03:18:04;-0.40;44.70
12959;DHT22;6544;51.666;6.634;2022-11-20T03:20:33;-0.50;99.90
12959;DHT22;6544;51.666;6.634;2022-11-20T03:23:00;-0.60;99.90
12959;DHT22;6544;51.666;6.634;2022-11-20T03:25:27;-0.50;99.90
12959;DHT22;6544;51.666;6.634;2022-11-20T03:27:54;-0.60;99.90
12959;DHT22;6544;51.666;6.634;2022-11-20T03:30:21;-0.50;99.90
12959;DHT22;6544;51.666;6.634;2022-11-20T03:32:54;-0.40;99.90
12959;DHT22;6544;51.666;6.634;2022-11-20T03:35:21;-0.50;99.90
12959;DHT22;6544;51.666;6.634;2022-11-20T03:37:48;-0.50;99.90
12959;DHT22;6544;51.666;6.634;2022-11-20T03:40:15;-0.50;99.90
12959;DHT22;6544;51.666;6.634;2022-11-20T03:42:41;-0.60;99.90
12959;DHT22;6544;51.666;6.634;2022-11-20T03:45:12;-0.60;99.90
12959;DHT22;6544;51.666;6.634;2022-11-20T03:47:39;-0.60;99.90
12959;DHT22;6544;51.666;6.634;2022-11-20T03:50:08;-0.70;99.90
12959;DHT22;6544;51.666;6.634;2022-11-20T03:52:35;-0.60;99.90
12959;DHT22;6544;51.666;6.634;2022-11-20T03:55:02;-0.60;99.90
12959;DHT22;6544;51.666;6.634;2022-11-20T03:57:29;-0.60;99.90
12959;DHT22;6544;51.666;6.634;2022-11-20T03:59:56;-0.50;99.90
12959;DHT22;6544;51.666;6.634;2022-11-20T04:02:23;-0.50;99.90
12959;DHT22;6544;51.666;6.634;2022-11-20T04:04:50;-0.50;99.90
12959;DHT22;6544;51.666;6.634;2022-11-20T04:07:18;-0.50;99.90
12959;DHT22;6544;51.666;6.634;2022-11-20T04:09:45;-0.50;67.70
12959;DHT22;6544;51.666;6.634;2022-11-20T04:12:12;-0.80;99.90
12959;DHT22;6544;51.666;6.634;2022-11-20T04:14:39;-0.80;99.90
12959;DHT22;6544;51.666;6.634;2022-11-20T04:17:05;-0.70;99.90
12959;DHT22;6544;51.666;6.634;2022-11-20T04:19:32;-0.80;99.90
12959;DHT22;6544;51.666;6.634;2022-11-20T04:21:59;-0.90;1.00
12959;DHT22;6544;51.666;6.634;2022-11-20T04:24:27;-0.80;1.00
12959;DHT22;6544;51.666;6.634;2022-11-20T04:26:54;-0.70;99.90
12959;DHT22;6544;51.666;6.634;2022-11-20T04:29:21;-0.60;99.90
12959;DHT22;6544;51.666;6.634;2022-11-20T04:31:48;-0.60;99.90
12959;DHT22;6544;51.666;6.634;2022-11-20T04:34:15;-0.60;99.90
12959;DHT22;6544;51.666;6.634;2022-11-20T04:36:42;-0.50;99.90
12959;DHT22;6544;51.666;6.634;2022-11-20T04:39:13;-0.60;99.90
12959;DHT22;6544;51.666;6.634;2022-11-20T04:41:42;-0.60;1.00
12959;DHT22;6544;51.666;6.634;2022-11-20T04:44:09;-0.60;1.00
12959;DHT22;6544;51.666;6.634;2022-11-20T04:46:37;-0.50;99.90
12959;DHT22;6544;51.666;6.634;2022-11-20T04:49:05;-0.50;99.90
12959;DHT22;6544;51.666;6.634;2022-11-20T04:51:32;-0.50;99.90
12959;DHT22;6544;51.666;6.634;2022-11-20T04:53:59;-0.50;99.90
12959;DHT22;6544;51.666;6.634;2022-11-20T04:56:26;-0.50;1.00
12959;DHT22;6544;51.666;6.634;2022-11-20T04:58:54;-0.50;1.00
12959;DHT22;6544;51.666;6.634;2022-11-20T05:01:22;-0.50;99.90
12959;DHT22;6544;51.666;6.634;2022-11-20T05:03:50;-0.60;99.90
12959;DHT22;6544;51.666;6.634;2022-11-20T05:06:18;-0.70;1.00
12959;DHT22;6544;51.666;6.634;2022-11-20T05:08:45;-0.60;1.00
12959;DHT22;6544;51.666;6.634;2022-11-20T05:11:15;-0.60;1.00
12959;DHT22;6544;51.666;6.634;2022-11-20T05:13:42;-0.60;1.00
12959;DHT22;6544;51.666;6.634;2022-11-20T05:16:12;-0.60;1.00
12959;DHT22;6544;51.666;6.634;2022-11-20T05:18:39;-0.70;1.00
12959;DHT22;6544;51.666;6.634;2022-11-20T05:21:07;-0.70;1.00
12959;DHT22;6544;51.666;6.634;2022-11-20T05:23:35;-0.60;1.00
12959;DHT22;6544;51.666;6.634;2022-11-20T05:26:02;-0.60;1.00
12959;DHT22;6544;51.666;6.634;2022-11-20T05:28:30;-0.60;1.00
12959;DHT22;6544;51.666;6.634;2022-11-20T05:31:04;-0.50;1.00
12959;DHT22;6544;51.666;6.634;2022-11-20T05:33:33;-0.50;1.00
12959;DHT22;6544;51.666;6.634;2022-11-20T05:36:00;-0.50;1.00
12959;DHT22;6544;51.666;6.634;2022-11-20T05:38:26;-0.50;1.00
12959;DHT22;6544;51.666;6.634;2022-11-20T05:40:53;-0.40;1.00
12959;DHT22;6544;51.666;6.634;2022-11-20T05:43:20;-0.40;1.00
12959;DHT22;6544;51.666;6.634;2022-11-20T05:45:52;-0.40;1.00
12959;DHT22;6544;51.666;6.634;2022-11-20T05:48:19;-0.40;1.00
12959;DHT22;6544;51.666;6.634;2022-11-20T05:50:48;-0.40;1.00
12959;DHT22;6544;51.666;6.634;2022-11-20T05:53:15;-0.50;1.00
12959;DHT22;6544;51.666;6.634;2022-11-20T05:55:41;-0.60;1.00
12959;DHT22;6544;51.666;6.634;2022-11-20T05:58:08;-0.50;1.00
12959;DHT22;6544;51.666;6.634;2022-11-20T06:00:35;-0.50;1.00
12959;DHT22;6544;51.666;6.634;2022-11-20T06:03:02;-0.40;99.90
12959;DHT22;6544;51.666;6.634;2022-11-20T06:05:29;-0.40;99.90
12959;DHT22;6544;51.666;6.634;2022-11-20T06:07:57;-0.40;99.90
12959;DHT22;6544;51.666;6.634;2022-11-20T06:10:26;-0.40;99.90
12959;DHT22;6544;51.666;6.634;2022-11-20T06:12:53;-0.40;99.90
12959;DHT22;6544;51.666;6.634;2022-11-20T06:15:23;-0.40;99.90
12959;DHT22;6544;51.666;6.634;2022-11-20T06:17:52;-0.40;99.90
12959;DHT22;6544;51.666;6.634;2022-11-20T06:20:19;-0.60;99.90
12959;DHT22;6544;51.666;6.634;2022-11-20T06:22:45;-0.60;1.00
12959;DHT22;6544;51.666;6.634;2022-11-20T06:25:14;-0.50;1.00
12959;DHT22;6544;51.666;6.634;2022-11-20T06:27:41;-0.40;1.00
12959;DHT22;6544;51.666;6.634;2022-11-20T06:30:09;-0.40;1.00
12959;DHT22;6544;51.666;6.634;2022-11-20T06:32:36;-0.40;1.00
12959;DHT22;6544;51.666;6.634;2022-11-20T06:35:03;-0.50;1.00
12959;DHT22;6544;51.666;6.634;2022-11-20T06:37:30;-0.50;1.00
12959;DHT22;6544;51.666;6.634;2022-11-20T06:39:57;-0.40;1.00
12959;DHT22;6544;51.666;6.634;2022-11-20T06:42:25;-0.40;1.00
12959;DHT22;6544;51.666;6.634;2022-11-20T06:44:52;-0.40;99.90
12959;DHT22;6544;51.666;6.634;2022-11-20T06:47:19;-0.40;99.90
12959;DHT22;6544;51.666;6.634;2022-11-20T06:49:46;-0.40;1.00
12959;DHT22;6544;51.666;6.634;2022-11-20T06:52:13;-0.40;99.90
12959;DHT22;6544;51.666;6.634;2022-11-20T06:54:40;-0.40;99.90
12959;DHT22;6544;51.666;6.634;2022-11-20T06:57:07;-0.40;99.90
12959;DHT22;6544;51.666;6.634;2022-11-20T06:59:35;-0.40;99.90
12959;DHT22;6544;51.666;6.634;2022-11-20T07:02:02;-0.60;1.00
12959;DHT22;6544;51.666;6.634;2022-11-20T07:04:28;-0.50;1.00
12959;DHT22;6544;51.666;6.634;2022-11-20T07:06:55;-0.50;1.00
12959;DHT22;6544;51.666;6.634;2022-11-20T07:09:22;-0.50;99.90
12959;DHT22;6544;51.666;6.634;2022-11-20T07:11:49;-0.50;99.90
12959;DHT22;6544;51.666;6.634;2022-11-20T07:14:16;-0.50;1.00
12959;DHT22;6544;51.666;6.634;2022-11-20T07:16:44;-0.60;1.00
12959;DHT22;6544;51.666;6.634;2022-11-20T07:19:11;-0.50;1.00
12959;DHT22;6544;51.666;6.634;2022-11-20T07:21:38;-0.50;1.00
12959;DHT22;6544;51.666;6.634;2022-11-20T07:24:05;-0.40;1.00
12959;DHT22;6544;51.666;6.634;2022-11-20T07:26:32;-0.40;99.90
12959;DHT22;6544;51.666;6.634;2022-11-20T07:28:59;-0.40;99.90
12959;DHT22;6544;51.666;6.634;2022-11-20T07:31:26;-0.40;99.90
12959;DHT22;6544;51.666;6.634;2022-11-20T07:33:54;-0.40;99.90
12959;DHT22;6544;51.666;6.634;2022-11-20T07:36:21;-0.40;99.90
12959;DHT22;6544;51.666;6.634;2022-11-20T07:38:49;-0.40;1.00
12959;DHT22;6544;51.666;6.634;2022-11-20T07:41:15;-0.50;1.00
12959;DHT22;6544;51.666;6.634;2022-11-20T07:43:42;-0.50;99.90
12959;DHT22;6544;51.666;6.634;2022-11-20T07:46:09;-0.50;1.00
12959;DHT22;6544;51.666;6.634;2022-11-20T07:48:36;-0.60;1.00
12959;DHT22;6544;51.666;6.634;2022-11-20T07:51:04;-0.50;1.00
12959;DHT22;6544;51.666;6.634;2022-11-20T07:53:31;-0.50;1.00
12959;DHT22;6544;51.666;6.634;2022-11-20T07:55:59;-0.60;1.00
12959;DHT22;6544;51.666;6.634;2022-11-20T07:58:26;-0.50;1.00
12959;DHT22;6544;51.666;6.634;2022-11-20T08:00:55;-0.50;1.00
12959;DHT22;6544;51.666;6.634;2022-11-20T08:03:21;-0.50;1.00
12959;DHT22;6544;51.666;6.634;2022-11-20T08:05:49;-0.50;1.00
12959;DHT22;6544;51.666;6.634;2022-11-20T08:08:17;-0.50;1.00
12959;DHT22;6544;51.666;6.634;2022-11-20T08:10:44;-0.50;1.00
12959;DHT22;6544;51.666;6.634;2022-11-20T08:13:11;-0.50;1.00
12959;DHT22;6544;51.666;6.634;2022-11-20T08:15:55;-0.50;1.00
12959;DHT22;6544;51.666;6.634;2022-11-20T08:18:22;-0.60;1.00
12959;DHT22;6544;51.666;6.634;2022-11-20T08:20:49;-0.50;1.00
12959;DHT22;6544;51.666;6.634;2022-11-20T08:23:17;-0.50;1.00
12959;DHT22;6544;51.666;6.634;2022-11-20T08:25:49;-0.50;1.00
12959;DHT22;6544;51.666;6.634;2022-11-20T08:28:16;-0.40;1.00
12959;DHT22;6544;51.666;6.634;2022-11-20T08:30:43;-0.50;94.80
12959;DHT22;6544;51.666;6.634;2022-11-20T08:33:11;-0.40;99.90
12959;DHT22;6544;51.666;6.634;2022-11-20T08:35:38;-0.20;99.90
12959;DHT22;6544;51.666;6.634;2022-11-20T08:38:06;-0.10;19.30
12959;DHT22;6544;51.666;6.634;2022-11-20T08:40:35;-0.10;1.00
12959;DHT22;6544;51.666;6.634;2022-11-20T08:43:02;-0.10;18.50
12959;DHT22;6544;51.666;6.634;2022-11-20T08:45:28;0.00;1.00
12959;DHT22;6544;51.666;6.634;2022-11-20T08:48:00;0.10;1.00
12959;DHT22;6544;51.666;6.634;2022-11-20T08:50:27;0.20;1.00
12959;DHT22;6544;51.666;6.634;2022-11-20T08:52:54;0.20;1.00
12959;DHT22;6544;51.666;6.634;2022-11-20T08:55:21;0.30;1.00
12959;DHT22;6544;51.666;6.634;2022-11-20T08:57:49;0.40;1.00
12959;DHT22;6544;51.666;6.634;2022-11-20T09:00:16;0.40;1.00
12959;DHT22;6544;51.666;6.634;2022-11-20T09:02:43;0.50;1.00
12959;DHT22;6544;51.666;6.634;2022-11-20T09:05:10;0.50;61.00
12959;DHT22;6544;51.666;6.634;2022-11-20T09:07:37;0.50;33.30
12959;DHT22;6544;51.666;6.634;2022-11-20T09:10:06;0.50;99.90
12959;DHT22;6544;51.666;6.634;2022-11-20T09:12:33;0.60;99.90
12959;DHT22;6544;51.666;6.634;2022-11-20T09:15:01;0.60;99.90
12959;DHT22;6544;51.666;6.634;2022-11-20T09:17:28;0.70;1.00
12959;DHT22;6544;51.666;6.634;2022-11-20T09:19:55;0.80;1.00
12959;DHT22;6544;51.666;6.634;2022-11-20T09:22:22;0.90;1.00
12959;DHT22;6544;51.666;6.634;2022-11-20T09:24:49;0.90;1.00
12959;DHT22;6544;51.666;6.634;2022-11-20T09:27:16;1.00;1.00
12959;DHT22;6544;51.666;6.634;2022-11-20T09:29:46;1.10;1.00
12959;DHT22;6544;51.666;6.634;2022-11-20T09:32:14;1.30;1.00
12959;DHT22;6544;51.666;6.634;2022-11-20T09:34:41;1.40;4.70
12959;DHT22;6544;51.666;6.634;2022-11-20T09:37:08;1.50;1.00
12959;DHT22;6544;51.666;6.634;2022-11-20T09:39:35;1.60;1.00
12959;DHT22;6544;51.666;6.634;2022-11-20T09:42:19;1.80;19.90
12959;DHT22;6544;51.666;6.634;2022-11-20T09:45:05;1.90;99.90
12959;DHT22;6544;51.666;6.634;2022-11-20T09:47:48;2.00;99.90
12959;DHT22;6544;51.666;6.634;2022-11-20T09:50:25;2.20;99.90
12959;DHT22;6544;51.666;6.634;2022-11-20T09:53:07;2.30;99.90
12959;DHT22;6544;51.666;6.634;2022-11-20T09:55:37;2.50;99.90
12959;DHT22;6544;51.666;6.634;2022-11-20T09:58:06;2.60;99.90
12959;DHT22;6544;51.666;6.634;2022-11-20T10:00:34;2.80;99.90
12959;DHT22;6544;51.666;6.634;2022-11-20T10:03:11;3.00;99.90
12959;DHT22;6544;51.666;6.634;2022-11-20T10:05:44;3.10;99.90
12959;DHT22;6544;51.666;6.634;2022-11-20T10:08:16;3.30;99.90
12959;DHT22;6544;51.666;6.634;2022-11-20T10:10:45;3.50;99.90
12959;DHT22;6544;51.666;6.634;2022-11-20T10:13:20;3.60;92.80
12959;DHT22;6544;51.666;6.634;2022-11-20T10:15:58;3.80;1.00
12959;DHT22;6544;51.666;6.634;2022-11-20T10:18:42;3.90;1.00
12959;DHT22;6544;51.666;6.634;2022-11-20T10:21:19;4.10;1.00
12959;DHT22;6544;51.666;6.634;2022-11-20T10:24:00;4.20;1.00
12959;DHT22;6544;51.666;6.634;2022-11-20T10:26:42;4.30;1.00
12959;DHT22;6544;51.666;6.634;2022-11-20T10:29:12;4.40;99.90
12959;DHT22;6544;51.666;6.634;2022-11-20T10:31:41;4.50;30.00
12959;DHT22;6544;51.666;6.634;2022-11-20T10:34:19;4.50;1.00
12959;DHT22;6544;51.666;6.634;2022-11-20T10:36:50;4.50;1.00
12959;DHT22;6544;51.666;6.634;2022-11-20T10:39:27;4.60;1.00
12959;DHT22;6544;51.666;6.634;2022-11-20T10:41:56;4.60;1.00
12959;DHT22;6544;51.666;6.634;2022-11-20T10:44:27;4.70;1.00
12959;DHT22;6544;51.666;6.634;2022-11-20T10:47:14;4.80;1.00
12959;DHT22;6544;51.666;6.634;2022-11-20T10:49:47;4.90;1.00
12959;DHT22;6544;51.666;6.634;2022-11-20T10:52:23;4.80;1.00
12959;DHT22;6544;51.666;6.634;2022-11-20T10:54:58;4.70;1.00
12959;DHT22;6544;51.666;6.634;2022-11-20T10:57:50;4.80;1.00
12959;DHT22;6544;51.666;6.634;2022-11-20T11:00:18;4.80;1.00
12959;DHT22;6544;51.666;6.634;2022-11-20T11:02:47;4.90;1.00
12959;DHT22;6544;51.666;6.634;2022-11-20T11:05:24;5.00;1.00
12959;DHT22;6544;51.666;6.634;2022-11-20T11:07:55;5.00;1.00
12959;DHT22;6544;51.666;6.634;2022-11-20T11:10:25;5.10;1.00
12959;DHT22;6544;51.666;6.634;2022-11-20T11:12:54;5.10;1.00
12959;DHT22;6544;51.666;6.634;2022-11-20T11:15:26;5.10;1.00
12959;DHT22;6544;51.666;6.634;2022-11-20T11:17:54;5.20;1.00
12959;DHT22;6544;51.666;6.634;2022-11-20T11:20:23;5.30;1.00
12959;DHT22;6544;51.666;6.634;2022-11-20T11:22:52;5.30;1.00
12959;DHT22;6544;51.666;6.634;2022-11-20T11:25:27;5.30;1.00
12959;DHT22;6544;51.666;6.634;2022-11-20T11:27:56;5.30;1.00
12959;DHT22;6544;51.666;6.634;2022-11-20T11:30:25;5.30;1.00
12959;DHT22;6544;51.666;6.634;2022-11-20T11:33:03;5.40;1.00
12959;DHT22;6544;51.666;6.634;2022-11-20T11:35:32;5.50;1.00
12959;DHT22;6544;51.666;6.634;2022-11-20T11:38:04;5.50;1.00
12959;DHT22;6544;51.666;6.634;2022-11-20T11:40:35;5.60;1.00
12959;DHT22;6544;51.666;6.634;2022-11-20T11:43:06;5.60;1.00
12959;DHT22;6544;51.666;6.634;2022-11-20T11:45:54;5.60;1.00
12959;DHT22;6544;51.666;6.634;2022-11-20T11:48:22;5.70;1.00
12959;DHT22;6544;51.666;6.634;2022-11-20T11:50:50;5.60;1.00
12959;DHT22;6544;51.666;6.634;2022-11-20T11:53:19;5.50;1.00
12959;DHT22;6544;51.666;6.634;2022-11-20T11:55:51;5.50;1.00
12959;DHT22;6544;51.666;6.634;2022-11-20T11:58:34;5.40;1.00
12959;DHT22;6544;51.666;6.634;2022-11-20T12:01:10;5.50;1.00
12959;DHT22;6544;51.666;6.634;2022-11-20T12:03:39;5.40;1.00
12959;DHT22;6544;51.666;6.634;2022-11-20T12:06:12;5.60;1.00
12959;DHT22;6544;51.666;6.634;2022-11-20T12:08:44;5.60;1.00
12959;DHT22;6544;51.666;6.634;2022-11-20T12:11:17;5.70;1.00
12959;DHT22;6544;51.666;6.634;2022-11-20T12:13:52;5.70;1.00
12959;DHT22;6544;51.666;6.634;2022-11-20T12:16:20;5.80;1.00
12959;DHT22;6544;51.666;6.634;2022-11-20T12:18:49;5.80;1.00
12959;DHT22;6544;51.666;6.634;2022-11-20T12:21:28;5.80;1.00
12959;DHT22;6544;51.666;6.634;2022-11-20T12:24:25;5.80;1.00
12959;DHT22;6544;51.666;6.634;2022-11-20T12:27:31;5.70;1.00
12959;DHT22;6544;51.666;6.634;2022-11-20T12:30:14;5.60;1.00
12959;DHT22;6544;51.666;6.634;2022-11-20T12:33:12;5.60;1.00
12959;DHT22;6544;51.666;6.634;2022-11-20T12:35:58;5.60;1.00
12959;DHT22;6544;51.666;6.634;2022-11-20T12:39:03;5.70;1.00
12959;DHT22;6544;51.666;6.634;2022-11-20T12:41:51;5.60;1.00
12959;DHT22;6544;51.666;6.634;2022-11-20T12:44:58;5.60;1.00
12959;DHT22;6544;51.666;6.634;2022-11-20T12:47:54;5.60;1.00
12959;DHT22;6544;51.666;6.634;2022-11-20T12:50:34;5.50;1.00
12959;DHT22;6544;51.666;6.634;2022-11-20T12:53:05;5.50;1.00
12959;DHT22;6544;51.666;6.634;2022-11-20T12:55:45;5.50;1.00
12959;DHT22;6544;51.666;6.634;2022-11-20T12:58:20;5.50;1.00
12959;DHT22;6544;51.666;6.634;2022-11-20T13:00:56;5.50;1.00
12959;DHT22;6544;51.666;6.634;2022-11-20T13:03:39;5.40;1.00
12959;DHT22;6544;51.666;6.634;2022-11-20T13:06:13;5.30;1.00
12959;DHT22;6544;51.666;6.634;2022-11-20T13:08:45;5.30;1.00
12959;DHT22;6544;51.666;6.634;2022-11-20T13:11:19;5.30;1.00
12959;DHT22;6544;51.666;6.634;2022-11-20T13:16:52;5.30;28.70
12959;DHT22;6544;51.666;6.634;2022-11-20T13:19:21;5.20;99.90
12959;DHT22;6544;51.666;6.634;2022-11-20T13:21:49;5.30;99.90
12959;DHT22;6544;51.666;6.634;2022-11-20T13:24:27;5.30;99.90
12959;DHT22;6544;51.666;6.634;2022-11-20T13:29:58;5.30;99.90
12959;DHT22;6544;51.666;6.634;2022-11-20T13:32:26;5.30;99.90
12959;DHT22;6544;51.666;6.634;2022-11-20T13:34:59;5.20;1.00
12959;DHT22;6544;51.666;6.634;2022-11-20T13:37:31;5.20;1.00
12959;DHT22;6544;51.666;6.634;2022-11-20T13:40:19;5.20;1.00
12959;DHT22;6544;51.666;6.634;2022-11-20T13:42:56;5.20;1.00
12959;DHT22;6544;51.666;6.634;2022-11-20T13:45:29;5.30;1.00
12959;DHT22;6544;51.666;6.634;2022-11-20T13:47:58;5.20;1.00
12959;DHT22;6544;51.666;6.634;2022-11-20T13:50:39;5.20;1.00
12959;DHT22;6544;51.666;6.634;2022-11-20T13:53:19;5.20;1.00
12959;DHT22;6544;51.666;6.634;2022-11-20T13:55:54;5.20;1.00
12959;DHT22;6544;51.666;6.634;2022-11-20T13:58:40;5.10;1.00
12959;DHT22;6544;51.666;6.634;2022-11-20T14:01:16;5.10;1.00
12959;DHT22;6544;51.666;6.634;2022-11-20T14:03:44;5.00;99.90
12959;DHT22;6544;51.666;6.634;2022-11-20T14:06:15;4.90;99.90
12959;DHT22;6544;51.666;6.634;2022-11-20T14:08:49;4.90;99.90
12959;DHT22;6544;51.666;6.634;2022-11-20T14:11:17;4.90;1.00
12959;DHT22;6544;51.666;6.634;2022-11-20T14:13:55;5.00;99.90
12959;DHT22;6544;51.666;6.634;2022-11-20T14:16:24;5.00;99.90
12959;DHT22;6544;51.666;6.634;2022-11-20T14:18:51;5.00;1.00
12959;DHT22;6544;51.666;6.634;2022-11-20T14:21:26;5.00;1.00
12959;DHT22;6544;51.666;6.634;2022-11-20T14:24:02;5.00;1.00
12959;DHT22;6544;51.666;6.634;2022-11-20T14:26:29;4.90;1.00
12959;DHT22;6544;51.666;6.634;2022-11-20T14:28:57;4.80;1.00
12959;DHT22;6544;51.666;6.634;2022-11-20T14:31:26;4.80;1.00
12959;DHT22;6544;51.666;6.634;2022-11-20T14:33:54;4.80;99.90
12959;DHT22;6544;51.666;6.634;2022-11-20T14:36:23;4.80;99.90
12959;DHT22;6544;51.666;6.634;2022-11-20T14:38:51;4.80;99.90
12959;DHT22;6544;51.666;6.634;2022-11-20T14:41:20;4.90;1.00
12959;DHT22;6544;51.666;6.634;2022-11-20T14:43:58;4.90;1.00
12959;DHT22;6544;51.666;6.634;2022-11-20T14:46:26;4.80;1.00
12959;DHT22;6544;51.666;6.634;2022-11-20T14:48:55;4.70;1.00
12959;DHT22;6544;51.666;6.634;2022-11-20T14:51:27;4.70;1.00
12959;DHT22;6544;51.666;6.634;2022-11-20T14:53:54;4.70;99.90
12959;DHT22;6544;51.666;6.634;2022-11-20T14:56:22;4.80;99.90
12959;DHT22;6544;51.666;6.634;2022-11-20T14:58:56;4.80;99.90
12959;DHT22;6544;51.666;6.634;2022-11-20T15:01:27;4.70;99.90
12959;DHT22;6544;51.666;6.634;2022-11-20T15:04:00;4.70;1.00
12959;DHT22;6544;51.666;6.634;2022-11-20T15:06:28;4.70;27.30
12959;DHT22;6544;51.666;6.634;2022-11-20T15:08:57;4.60;1.00
12959;DHT22;6544;51.666;6.634;2022-11-20T15:11:30;4.70;1.00
12959;DHT22;6544;51.666;6.634;2022-11-20T15:13:59;4.70;1.00
12959;DHT22;6544;51.666;6.634;2022-11-20T15:16:29;4.80;1.00
12959;DHT22;6544;51.666;6.634;2022-11-20T15:18:57;4.80;1.00
12959;DHT22;6544;51.666;6.634;2022-11-20T15:21:24;4.70;99.90
12959;DHT22;6544;51.666;6.634;2022-11-20T15:23:51;4.70;1.00
12959;DHT22;6544;51.666;6.634;2022-11-20T15:26:23;4.70;1.00
12959;DHT22;6544;51.666;6.634;2022-11-20T15:28:51;4.70;1.00
12959;DHT22;6544;51.666;6.634;2022-11-20T15:31:20;4.70;43.30
12959;DHT22;6544;51.666;6.634;2022-11-20T15:33:49;4.70;99.90
12959;DHT22;6544;51.666;6.634;2022-11-20T15:36:16;4.70;1.00
12959;DHT22;6544;51.666;6.634;2022-11-20T15:38:43;4.60;99.90
12959;DHT22;6544;51.666;6.634;2022-11-20T15:41:10;4.60;1.00
12959;DHT22;6544;51.666;6.634;2022-11-20T15:43:37;4.60;1.00
12959;DHT22;6544;51.666;6.634;2022-11-20T15:46:06;4.60;76.40
12959;DHT22;6544;51.666;6.634;2022-11-20T15:48:37;4.50;99.90
12959;DHT22;6544;51.666;6.634;2022-11-20T15:51:14;4.60;1.00
12959;DHT22;6544;51.666;6.634;2022-11-20T15:53:45;4.60;1.00
12959;DHT22;6544;51.666;6.634;2022-11-20T15:56:13;4.60;1.00
12959;DHT22;6544;51.666;6.634;2022-11-20T15:58:40;4.60;1.00
12959;DHT22;6544;51.666;6.634;2022-11-20T16:01:10;4.50;1.00
12959;DHT22;6544;51.666;6.634;2022-11-20T16:03:37;4.50;99.90
12959;DHT22;6544;51.666;6.634;2022-11-20T16:06:04;4.50;1.00
12959;DHT22;6544;51.666;6.634;2022-11-20T16:08:32;4.40;99.90
12959;DHT22;6544;51.666;6.634;2022-11-20T16:10:59;4.40;99.90
12959;DHT22;6544;51.666;6.634;2022-11-20T16:13:26;4.40;1.00
12959;DHT22;6544;51.666;6.634;2022-11-20T16:16:19;4.40;1.00
12959;DHT22;6544;51.666;6.634;2022-11-20T16:18:47;4.40;1.00
12959;DHT22;6544;51.666;6.634;2022-11-20T16:21:14;4.40;1.00
12959;DHT22;6544;51.666;6.634;2022-11-20T16:23:43;4.40;1.00
12959;DHT22;6544;51.666;6.634;2022-11-20T16:26:12;4.40;1.00
12959;DHT22;6544;51.666;6.634;2022-11-20T16:28:39;4.40;1.00
12959;DHT22;6544;51.666;6.634;2022-11-20T16:31:10;4.50;1.00
12959;DHT22;6544;51.666;6.634;2022-11-20T16:33:37;4.40;1.00
12959;DHT22;6544;51.666;6.634;2022-11-20T16:36:09;4.50;1.00